createdAt,value
2022-10-19T00:01:58.589Z,13.63
2022-10-19T00:04:25.080Z,14.95
2022-10-19T00:06:51.491Z,16.27
2022-10-19T00:09:19.203Z,17.15
2022-10-19T00:11:48.444Z,16.25
2022-10-19T00:14:18.525Z,14.88
2022-10-19T00:16:47.542Z,17.27
2022-10-19T00:19:20.387Z,16.50
2022-10-19T00:21:47.013Z,18.35
2022-10-19T00:24:13.636Z,14.63
2022-10-19T00:26:40.051Z,13.85
2022-10-19T00:29:07.416Z,16.52
2022-10-19T00:31:34.312Z,16.23
2022-10-19T00:34:00.836Z,17.45
2022-10-19T00:36:28.541Z,14.38
2022-10-19T00:38:56.108Z,17.65
2022-10-19T00:41:25.450Z,14.43
2022-10-19T00:43:54.962Z,12.15
2022-10-19T00:46:22.219Z,13.77
2022-10-19T00:53:47.393Z,13.23
2022-10-19T00:56:15.532Z,11.32
2022-10-19T00:58:43.629Z,13.68
2022-10-19T01:01:13.588Z,11.27
2022-10-19T01:03:40.537Z,11.60
2022-10-19T01:06:07.100Z,17.27
2022-10-19T01:08:33.751Z,16.60
2022-10-19T01:11:06.233Z,15.20
2022-10-19T01:13:47.107Z,15.82
2022-10-19T01:16:25.453Z,13.93
2022-10-19T01:19:04.908Z,13.30
2022-10-19T01:21:43.452Z,14.60
2022-10-19T01:24:27.294Z,13.90
2022-10-19T01:27:22.972Z,17.63
2022-10-19T01:30:13.501Z,12.60
2022-10-19T01:32:48.965Z,12.45
2022-10-19T01:35:37.641Z,13.25
2022-10-19T01:38:28.500Z,12.50
2022-10-19T01:41:10.637Z,11.07
2022-10-19T01:43:42.277Z,13.63
2022-10-19T01:49:02.764Z,12.13
2022-10-19T01:51:33.809Z,14.38
2022-10-19T01:54:04.821Z,10.73
2022-10-19T01:56:34.125Z,10.27
2022-10-19T01:59:04.795Z,11.40
2022-10-19T02:01:34.438Z,11.10
2022-10-19T02:04:03.554Z,14.50
2022-10-19T02:06:30.167Z,11.15
2022-10-19T02:08:56.871Z,12.93
2022-10-19T02:11:23.986Z,12.35
2022-10-19T02:13:59.421Z,10.43
2022-10-19T02:16:30.737Z,12.77
2022-10-19T02:18:59.916Z,17.13
2022-10-19T02:21:26.882Z,20.98
2022-10-19T02:23:54.303Z,22.50
2022-10-19T02:26:21.896Z,25.05
2022-10-19T02:28:49.284Z,44.50
2022-10-19T02:31:15.941Z,31.63
2022-10-19T02:33:42.547Z,39.13
2022-10-19T02:36:08.987Z,95.97
2022-10-19T02:38:35.453Z,110.97
2022-10-19T02:41:17.969Z,124.82
2022-10-19T02:43:49.411Z,150.23
2022-10-19T02:46:31.742Z,163.13
2022-10-19T02:48:59.088Z,197.38
2022-10-19T02:51:37.716Z,128.40
2022-10-19T02:54:06.561Z,53.33
2022-10-19T02:56:33.831Z,228.32
2022-10-19T02:59:01.708Z,191.93
2022-10-19T03:01:28.256Z,248.60
2022-10-19T03:03:54.648Z,249.85
2022-10-19T03:06:21.089Z,251.25
2022-10-19T03:08:47.496Z,198.27
2022-10-19T03:11:14.014Z,132.05
2022-10-19T03:13:41.467Z,264.42
2022-10-19T03:16:12.457Z,293.27
2022-10-19T03:18:39.630Z,226.30
2022-10-19T03:21:09.825Z,244.23
2022-10-19T03:23:36.988Z,166.85
2022-10-19T03:26:05.684Z,188.05
2022-10-19T03:28:34.331Z,83.40
2022-10-19T03:31:00.737Z,100.35
2022-10-19T03:33:27.197Z,119.65
2022-10-19T03:36:32.669Z,79.85
2022-10-19T03:39:03.192Z,72.28
2022-10-19T03:41:31.276Z,85.63
2022-10-19T03:43:57.734Z,73.80
2022-10-19T03:46:24.738Z,68.38
2022-10-19T03:48:51.216Z,78.85
2022-10-19T03:51:20.244Z,66.07
2022-10-19T03:53:46.877Z,70.07
2022-10-19T03:56:19.011Z,63.38
2022-10-19T03:58:47.500Z,56.38
2022-10-19T04:01:17.357Z,50.53
2022-10-19T04:03:44.486Z,48.13
2022-10-19T04:06:19.648Z,49.67
2022-10-19T04:08:49.223Z,51.85
2022-10-19T04:11:17.964Z,54.17
2022-10-19T04:13:44.349Z,42.80
2022-10-19T04:16:13.906Z,48.10
2022-10-19T04:18:40.416Z,41.03
2022-10-19T04:21:07.232Z,49.03
2022-10-19T04:23:35.695Z,42.22
2022-10-19T04:26:07.751Z,41.08
2022-10-19T04:28:34.798Z,34.28
2022-10-19T04:31:05.948Z,34.05
2022-10-19T04:33:34.227Z,33.15
2022-10-19T04:36:12.929Z,30.85
2022-10-19T04:38:39.763Z,43.47
2022-10-19T04:41:14.111Z,32.58
2022-10-19T04:43:41.137Z,30.40
2022-10-19T04:46:13.844Z,28.85
2022-10-19T04:48:41.902Z,27.55
2022-10-19T04:51:08.945Z,23.35
2022-10-19T04:53:37.592Z,26.05
2022-10-19T04:56:05.597Z,23.52
2022-10-19T04:58:32.056Z,26.20
2022-10-19T05:00:58.488Z,33.25
2022-10-19T05:03:24.964Z,29.27
2022-10-19T05:05:51.433Z,28.65
2022-10-19T05:08:17.808Z,28.40
2022-10-19T05:10:47.018Z,28.25
2022-10-19T05:13:14.421Z,29.20
2022-10-19T05:15:40.865Z,28.80
2022-10-19T05:18:07.296Z,27.38
2022-10-19T05:20:33.720Z,30.45
2022-10-19T05:23:04.562Z,26.35
2022-10-19T05:25:33.501Z,26.92
2022-10-19T05:27:59.912Z,27.73
2022-10-19T05:30:26.349Z,34.03
2022-10-19T05:32:52.781Z,29.05
2022-10-19T05:35:22.353Z,29.60
2022-10-19T05:37:49.180Z,33.15
2022-10-19T05:40:15.604Z,29.25
2022-10-19T05:42:42.009Z,29.80
2022-10-19T05:45:08.717Z,29.02
2022-10-19T05:47:35.711Z,30.35
2022-10-19T05:50:02.361Z,29.88
2022-10-19T05:52:29.301Z,37.50
2022-10-19T05:54:56.269Z,36.45
2022-10-19T05:57:22.662Z,35.22
2022-10-19T05:59:49.278Z,38.30
2022-10-19T06:02:15.792Z,41.80
2022-10-19T06:04:42.168Z,37.00
2022-10-19T06:07:08.652Z,44.88
2022-10-19T06:09:36.457Z,47.47
2022-10-19T06:12:03.831Z,43.45
2022-10-19T06:14:30.604Z,41.63
2022-10-19T06:16:57.083Z,45.05
2022-10-19T06:19:23.509Z,40.70
2022-10-19T06:21:49.961Z,36.75
2022-10-19T06:24:16.508Z,48.17
2022-10-19T06:26:42.965Z,36.83
2022-10-19T06:29:09.777Z,65.65
2022-10-19T06:31:36.700Z,79.55
2022-10-19T06:34:04.041Z,42.33
2022-10-19T06:36:31.649Z,41.22
2022-10-19T06:38:59.627Z,42.13
2022-10-19T06:41:26.123Z,70.03
2022-10-19T06:43:54.704Z,44.80
2022-10-19T06:46:23.393Z,38.55
2022-10-19T06:48:51.627Z,45.83
2022-10-19T06:51:18.262Z,33.80
2022-10-19T06:53:44.662Z,76.30
2022-10-19T06:56:11.324Z,61.15
2022-10-19T06:58:38.672Z,125.50
2022-10-19T07:01:10.111Z,52.70
2022-10-19T07:06:06.309Z,30.75
2022-10-19T07:08:34.469Z,77.90
2022-10-19T07:11:04.297Z,49.13
2022-10-19T07:13:31.256Z,124.28
2022-10-19T07:15:58.688Z,132.32
2022-10-19T07:18:25.940Z,125.43
2022-10-19T07:20:57.474Z,57.97
2022-10-19T07:25:53.220Z,42.33
2022-10-19T07:28:22.487Z,48.58
2022-10-19T07:30:49.006Z,42.50
2022-10-19T07:33:15.432Z,38.45
2022-10-19T07:35:41.942Z,41.72
2022-10-19T07:38:08.685Z,39.10
2022-10-19T07:40:35.782Z,41.70
2022-10-19T07:43:02.376Z,38.13
2022-10-19T07:45:29.885Z,35.60
2022-10-19T07:47:56.468Z,38.50
2022-10-19T07:50:24.587Z,30.55
2022-10-19T07:52:54.504Z,29.85
2022-10-19T07:55:20.957Z,28.90
2022-10-19T07:57:49.096Z,25.17
2022-10-19T08:00:18.321Z,23.92
2022-10-19T08:03:02.612Z,23.63
2022-10-19T08:05:34.470Z,16.27
2022-10-19T08:08:00.941Z,16.65
2022-10-19T08:10:27.350Z,19.23
2022-10-19T08:12:53.788Z,19.20
2022-10-19T08:15:20.184Z,22.95
2022-10-19T08:17:46.563Z,23.35
2022-10-19T08:20:13.046Z,23.00
2022-10-19T08:22:39.731Z,21.45
2022-10-19T08:25:06.326Z,18.83
2022-10-19T08:27:32.825Z,19.58
2022-10-19T08:29:59.236Z,18.35
2022-10-19T08:32:25.626Z,15.38
2022-10-19T08:34:52.047Z,16.38
2022-10-19T08:37:26.431Z,19.73
2022-10-19T08:40:05.765Z,16.23
2022-10-19T08:43:04.191Z,21.42
2022-10-19T08:45:38.320Z,17.63
2022-10-19T08:48:29.292Z,17.80
2022-10-19T08:50:58.261Z,18.17
2022-10-19T08:53:33.414Z,17.90
2022-10-19T08:56:45.658Z,17.13
2022-10-19T08:59:20.802Z,13.00
2022-10-19T09:02:02.485Z,18.05
2022-10-19T09:07:30.905Z,17.67
2022-10-19T09:10:02.511Z,13.85
2022-10-19T09:12:35.893Z,12.95
2022-10-19T09:15:16.180Z,12.35
2022-10-19T09:17:42.636Z,12.95
2022-10-19T09:20:27.389Z,14.82
2022-10-19T09:23:09.809Z,14.82
2022-10-19T09:25:39.788Z,15.25
2022-10-19T09:28:36.530Z,15.57
2022-10-19T09:31:10.973Z,12.32
2022-10-19T09:33:39.488Z,14.40
2022-10-19T09:36:07.561Z,15.68
2022-10-19T09:38:34.169Z,15.05
2022-10-19T09:41:15.471Z,13.95
2022-10-19T09:43:50.737Z,14.25
2022-10-19T09:46:38.934Z,11.02
2022-10-19T09:49:06.194Z,12.32
2022-10-19T09:51:51.529Z,10.85
2022-10-19T09:54:32.400Z,11.35
2022-10-19T09:56:58.901Z,10.65
2022-10-19T09:59:30.246Z,12.25
2022-10-19T10:02:05.694Z,11.05
2022-10-19T10:04:32.193Z,12.63
2022-10-19T10:06:59.115Z,11.77
2022-10-19T10:09:28.688Z,10.00
2022-10-19T10:11:58.790Z,9.52
2022-10-19T10:14:33.201Z,9.80
2022-10-19T10:17:07.113Z,10.98
2022-10-19T10:19:35.962Z,8.27
2022-10-19T10:22:03.928Z,10.45
2022-10-19T10:24:32.277Z,9.82
2022-10-19T10:27:04.497Z,9.98
2022-10-19T10:29:34.137Z,13.65
2022-10-19T10:32:04.381Z,9.27
2022-10-19T10:34:45.973Z,9.88
2022-10-19T10:37:41.637Z,12.15
2022-10-19T10:40:23.374Z,9.13
2022-10-19T10:42:52.512Z,11.77
2022-10-19T10:45:53.049Z,12.30
2022-10-19T10:48:22.209Z,10.02
2022-10-19T10:50:48.850Z,8.98
2022-10-19T10:53:41.058Z,10.40
2022-10-19T10:56:21.180Z,12.43
2022-10-19T10:58:57.217Z,12.88
2022-10-19T11:01:28.774Z,9.43
2022-10-19T11:04:07.047Z,10.05
2022-10-19T11:06:43.761Z,8.85
2022-10-19T11:09:31.484Z,11.00
2022-10-19T11:12:03.208Z,8.73
2022-10-19T11:14:49.269Z,7.72
2022-10-19T11:17:23.678Z,7.70
2022-10-19T11:19:51.251Z,7.75
2022-10-19T11:22:27.076Z,7.18
2022-10-19T11:24:53.652Z,7.43
2022-10-19T11:27:47.475Z,13.55
2022-10-19T11:30:19.126Z,5.38
2022-10-19T11:33:20.697Z,6.90
2022-10-19T11:35:59.659Z,6.47
2022-10-19T11:38:29.867Z,4.68
2022-10-19T11:41:21.891Z,4.70
2022-10-19T11:44:09.651Z,5.30
2022-10-19T11:47:17.986Z,5.65
2022-10-19T11:52:51.280Z,5.72
2022-10-19T11:55:42.888Z,5.28
2022-10-19T11:58:37.051Z,10.18
2022-10-19T12:01:20.621Z,5.32
2022-10-19T12:04:12.040Z,6.47
2022-10-19T12:06:58.666Z,5.32
2022-10-19T12:09:25.208Z,5.43
2022-10-19T12:12:08.366Z,4.80
2022-10-19T12:14:40.144Z,8.55
2022-10-19T12:19:50.525Z,6.85
2022-10-19T12:22:22.120Z,4.68
2022-10-19T12:24:50.724Z,5.95
2022-10-19T12:27:24.792Z,4.18
2022-10-19T12:29:52.201Z,4.60
2022-10-19T12:32:21.717Z,5.60
2022-10-19T12:34:59.165Z,6.50
2022-10-19T12:37:41.268Z,5.53
2022-10-19T12:40:44.593Z,6.47
2022-10-19T12:43:34.789Z,4.03
2022-10-19T12:46:08.849Z,5.18
2022-10-19T12:48:37.089Z,4.13
2022-10-19T12:51:11.933Z,5.25
2022-10-19T12:53:44.475Z,7.32
2022-10-19T12:56:13.844Z,5.78
2022-10-19T12:58:54.154Z,5.53
2022-10-19T13:01:28.956Z,4.60
2022-10-19T13:04:11.926Z,4.20
2022-10-19T13:06:42.661Z,4.80
2022-10-19T13:09:23.573Z,7.25
2022-10-19T13:12:21.776Z,6.30
2022-10-19T13:14:55.960Z,5.82
2022-10-19T13:17:37.325Z,6.10
2022-10-19T13:20:13.037Z,4.20
2022-10-19T13:22:40.551Z,5.15
2022-10-19T13:25:16.108Z,5.30
2022-10-19T13:27:44.245Z,8.65
2022-10-19T13:30:35.675Z,4.95
2022-10-19T13:33:33.414Z,5.20
2022-10-19T13:35:59.911Z,5.50
2022-10-19T13:38:56.668Z,7.30
2022-10-19T13:41:28.336Z,7.03
2022-10-19T13:44:13.741Z,6.82
2022-10-19T13:46:48.280Z,6.15
2022-10-19T13:49:32.662Z,6.18
2022-10-19T13:52:30.210Z,7.03
2022-10-19T13:55:18.450Z,6.05
2022-10-19T13:58:00.561Z,6.32
2022-10-19T14:00:56.318Z,6.13
2022-10-19T14:03:35.556Z,7.20
2022-10-19T14:06:13.254Z,5.45
2022-10-19T14:09:13.688Z,7.28
2022-10-19T14:11:42.817Z,8.10
2022-10-19T14:14:09.310Z,5.45
2022-10-19T14:16:45.852Z,5.70
2022-10-19T14:19:14.069Z,5.35
2022-10-19T14:21:41.161Z,4.90
2022-10-19T14:24:27.026Z,4.95
2022-10-19T14:26:54.142Z,5.55
2022-10-19T14:29:20.648Z,5.60
2022-10-19T14:31:47.197Z,6.25
2022-10-19T14:34:15.018Z,4.50
2022-10-19T14:36:47.774Z,4.95
2022-10-19T14:39:34.176Z,6.68
2022-10-19T14:42:05.957Z,4.40
2022-10-19T14:44:32.296Z,7.60
2022-10-19T14:47:00.943Z,5.22
2022-10-19T14:49:27.424Z,5.30
2022-10-19T14:52:02.977Z,7.80
2022-10-19T14:54:36.323Z,5.28
2022-10-19T14:57:15.746Z,6.68
2022-10-19T14:59:56.525Z,5.97
2022-10-19T15:02:25.246Z,4.90
2022-10-19T15:04:53.252Z,5.18
2022-10-19T15:07:34.641Z,5.85
2022-10-19T15:10:04.081Z,3.95
2022-10-19T15:12:37.563Z,9.40
2022-10-19T15:15:16.505Z,6.32
2022-10-19T15:18:30.298Z,5.10
2022-10-19T15:21:13.979Z,7.35
2022-10-19T15:23:50.064Z,7.07
2022-10-19T15:26:26.762Z,5.70
2022-10-19T15:29:06.561Z,6.50
2022-10-19T15:31:33.030Z,6.13
2022-10-19T15:34:01.824Z,7.75
2022-10-19T15:36:30.162Z,9.55
2022-10-19T15:39:18.196Z,5.90
2022-10-19T15:41:52.276Z,8.43
2022-10-19T15:44:45.566Z,7.70
2022-10-19T15:47:14.699Z,6.97
2022-10-19T15:49:41.085Z,5.85
2022-10-19T15:52:24.713Z,7.05
2022-10-19T15:54:56.238Z,8.82
2022-10-19T16:00:00.039Z,6.00
2022-10-19T16:02:26.751Z,7.35
2022-10-19T16:04:54.322Z,6.22
2022-10-19T16:07:33.682Z,8.80
2022-10-19T16:10:00.281Z,7.55
2022-10-19T16:12:26.924Z,7.32
2022-10-19T16:14:54.238Z,8.75
2022-10-19T16:17:20.921Z,8.00
2022-10-19T16:19:47.701Z,7.18
2022-10-19T16:22:15.189Z,6.82
2022-10-19T16:24:41.980Z,6.65
2022-10-19T16:27:08.942Z,8.05
2022-10-19T16:29:35.610Z,7.32
2022-10-19T16:32:02.310Z,7.35
2022-10-19T16:34:28.797Z,6.22
2022-10-19T16:36:55.282Z,5.80
2022-10-19T16:39:21.748Z,7.32
2022-10-19T16:41:48.300Z,7.18
2022-10-19T16:44:14.821Z,6.32
2022-10-19T16:46:41.281Z,6.38
2022-10-19T16:49:07.844Z,7.55
2022-10-19T16:51:39.262Z,6.07
2022-10-19T16:54:09.198Z,6.13
2022-10-19T16:56:36.658Z,7.30
2022-10-19T16:59:06.230Z,7.28
2022-10-19T17:01:34.893Z,10.68
2022-10-19T17:04:01.536Z,8.18
2022-10-19T17:06:28.810Z,8.18
2022-10-19T17:11:43.933Z,10.00
2022-10-19T17:14:12.653Z,7.45
2022-10-19T17:16:40.005Z,7.75
2022-10-19T17:19:07.781Z,9.88
2022-10-19T17:21:38.416Z,7.28
2022-10-19T17:24:07.473Z,7.57
2022-10-19T17:26:39.568Z,7.50
2022-10-19T17:29:06.377Z,8.77
2022-10-19T17:31:33.184Z,7.30
2022-10-19T17:34:00.719Z,7.93
2022-10-19T17:36:29.563Z,8.98
2022-10-19T17:38:59.267Z,8.07
2022-10-19T17:41:26.509Z,9.18
2022-10-19T17:46:23.411Z,11.60
2022-10-19T17:48:50.183Z,16.17
2022-10-19T17:51:20.129Z,10.63
2022-10-19T17:53:48.702Z,11.50
2022-10-19T17:56:18.523Z,14.88
2022-10-19T17:58:45.700Z,8.82
2022-10-19T18:01:13.107Z,10.57
2022-10-19T18:03:40.109Z,12.55
2022-10-19T18:06:26.757Z,10.57
2022-10-19T18:08:55.237Z,8.55
2022-10-19T18:11:24.632Z,12.40
2022-10-19T18:13:52.233Z,8.05
2022-10-19T18:16:27.488Z,8.82
2022-10-19T18:18:56.476Z,10.40
2022-10-19T18:21:25.542Z,12.52
2022-10-19T18:23:53.613Z,11.75
2022-10-19T18:26:22.379Z,11.90
2022-10-19T18:28:50.157Z,10.27
2022-10-19T18:31:19.764Z,12.10
2022-10-19T18:33:47.987Z,10.43
2022-10-19T18:36:14.886Z,15.00
2022-10-19T21:43:00.844Z,13.18
2022-10-19T21:45:31.027Z,17.70
2022-10-19T21:47:57.789Z,14.18
2022-10-19T21:50:24.247Z,18.02
2022-10-19T21:52:50.723Z,14.82
2022-10-19T21:55:17.160Z,13.60
2022-10-19T21:57:43.539Z,19.73
2022-10-19T22:00:10.529Z,17.08
2022-10-19T22:02:39.385Z,15.73
2022-10-19T22:05:05.985Z,18.58
2022-10-19T22:07:32.523Z,16.92
2022-10-19T22:09:59.208Z,23.27
2022-10-19T22:12:25.648Z,19.13
2022-10-19T22:14:52.053Z,17.48
2022-10-19T22:17:18.441Z,18.05
2022-10-19T22:19:44.838Z,20.38
2022-10-19T22:22:11.318Z,16.45
2022-10-19T22:24:37.753Z,19.98
2022-10-19T22:27:04.164Z,19.02
2022-10-19T22:29:30.564Z,19.48
2022-10-19T22:31:56.989Z,21.27
2022-10-19T22:34:23.576Z,18.77
2022-10-19T22:36:49.989Z,21.25
2022-10-19T22:39:16.849Z,16.85
2022-10-19T22:41:43.372Z,16.52
2022-10-19T22:44:09.781Z,19.60
2022-10-19T22:46:36.281Z,17.38
2022-10-19T22:49:02.907Z,17.85
2022-10-19T22:51:29.438Z,20.77
2022-10-19T22:53:55.980Z,21.58
2022-10-19T22:56:22.365Z,17.65
2022-10-19T22:58:48.947Z,20.58
2022-10-19T23:01:16.103Z,23.08
2022-10-19T23:03:42.725Z,22.20
2022-10-19T23:06:12.741Z,22.88
2022-10-19T23:08:39.397Z,19.50
2022-10-19T23:11:05.952Z,19.13
2022-10-19T23:13:32.407Z,16.60
2022-10-19T23:15:58.867Z,19.77
2022-10-19T23:18:25.523Z,21.17
2022-10-19T23:20:57.275Z,19.50
2022-10-19T23:23:24.145Z,16.60
2022-10-19T23:25:57.638Z,26.10
2022-10-19T23:28:24.024Z,19.33
2022-10-19T23:30:50.499Z,20.85
2022-10-19T23:33:17.161Z,23.77
2022-10-19T23:35:43.762Z,21.15
2022-10-19T23:38:10.164Z,22.25
2022-10-19T23:40:36.648Z,19.55
2022-10-19T23:43:03.045Z,18.42
2022-10-19T23:45:29.505Z,20.52
2022-10-19T23:47:55.932Z,20.42
2022-10-19T23:50:22.338Z,22.75
2022-10-19T23:52:48.736Z,21.05
2022-10-19T23:55:15.262Z,22.20
2022-10-19T23:57:42.005Z,16.67
